createdAt,value
2023-04-26T00:00:31.868Z,2.97
2023-04-26T00:03:00.675Z,2.93
2023-04-26T00:05:29.504Z,3.27
2023-04-26T00:07:56.798Z,2.70
2023-04-26T00:10:23.541Z,3.00
2023-04-26T00:12:50.447Z,3.00
2023-04-26T00:15:17.125Z,3.30
2023-04-26T00:17:43.998Z,3.17
2023-04-26T00:20:12.944Z,3.03
2023-04-26T00:22:40.646Z,3.03
2023-04-26T00:25:07.808Z,3.50
2023-04-26T00:27:34.481Z,3.07
2023-04-26T00:30:01.201Z,3.17
2023-04-26T00:32:28.004Z,3.20
2023-04-26T00:34:54.743Z,3.37
2023-04-26T00:37:21.773Z,3.00
2023-04-26T00:39:48.538Z,2.80
2023-04-26T00:42:15.294Z,3.80
2023-04-26T00:44:42.795Z,3.33
2023-04-26T00:47:09.573Z,2.87
2023-04-26T00:49:36.655Z,3.50
2023-04-26T00:52:03.311Z,2.90
2023-04-26T00:54:30.009Z,3.10
2023-04-26T00:56:57.322Z,3.70
2023-04-26T00:59:24.075Z,3.50
2023-04-26T01:01:50.824Z,3.30
2023-04-26T01:04:18.213Z,3.97
2023-04-26T01:06:45.962Z,3.20
2023-04-26T01:09:15.214Z,3.10
2023-04-26T01:11:43.430Z,3.30
2023-04-26T01:14:10.954Z,3.43
2023-04-26T01:16:38.454Z,3.90
2023-04-26T01:19:11.000Z,3.37
2023-04-26T01:21:37.954Z,3.40
2023-04-26T01:24:05.946Z,3.33
2023-04-26T01:26:32.662Z,3.13
2023-04-26T01:28:59.390Z,3.10
2023-04-26T01:31:26.424Z,3.07
2023-04-26T01:33:53.181Z,3.20
2023-04-26T01:36:19.885Z,3.57
2023-04-26T01:38:46.574Z,3.40
2023-04-26T01:41:13.282Z,3.83
2023-04-26T01:43:39.980Z,3.77
2023-04-26T01:46:06.657Z,4.00
2023-04-26T01:48:33.764Z,3.80
2023-04-26T01:51:00.483Z,4.00
2023-04-26T01:53:27.176Z,4.00
2023-04-26T01:55:55.515Z,3.80
2023-04-26T01:58:22.304Z,3.83
2023-04-26T02:00:48.946Z,3.87
2023-04-26T02:03:15.741Z,3.50
2023-04-26T02:05:42.528Z,4.00
2023-04-26T02:08:09.238Z,4.00
2023-04-26T02:10:36.201Z,4.00
2023-04-26T02:13:02.877Z,4.47
2023-04-26T02:15:29.546Z,4.03
2023-04-26T02:17:56.633Z,3.77
2023-04-26T02:20:23.419Z,3.83
2023-04-26T02:22:50.083Z,3.70
2023-04-26T02:25:16.768Z,4.07
2023-04-26T02:27:43.425Z,4.00
2023-04-26T02:30:10.418Z,3.60
2023-04-26T02:32:37.074Z,5.00
2023-04-26T02:35:05.227Z,5.77
2023-04-26T02:37:33.211Z,5.73
2023-04-26T02:40:00.009Z,6.00
2023-04-26T02:42:26.715Z,5.40
2023-04-26T02:44:53.400Z,5.17
2023-04-26T02:47:20.186Z,4.50
2023-04-26T02:49:46.938Z,5.20
2023-04-26T02:52:13.606Z,4.30
2023-04-26T02:54:40.311Z,4.10
2023-04-26T02:57:08.197Z,4.10
2023-04-26T02:59:34.922Z,3.83
2023-04-26T03:02:01.632Z,4.30
2023-04-26T03:04:28.811Z,4.00
2023-04-26T03:06:55.529Z,4.00
2023-04-26T03:09:22.320Z,4.23
2023-04-26T03:11:50.228Z,4.00
2023-04-26T03:14:17.392Z,4.27
2023-04-26T03:16:44.788Z,3.90
2023-04-26T03:19:11.763Z,4.20
2023-04-26T03:21:38.429Z,3.80
2023-04-26T03:24:05.622Z,3.60
2023-04-26T03:26:32.295Z,3.90
2023-04-26T03:28:59.075Z,4.20
2023-04-26T03:31:26.023Z,4.20
2023-04-26T03:33:52.744Z,4.23
2023-04-26T03:36:19.398Z,3.60
2023-04-26T03:38:46.310Z,4.27
2023-04-26T03:41:13.610Z,4.03
2023-04-26T03:43:40.310Z,4.43
2023-04-26T03:46:07.093Z,4.27
2023-04-26T03:48:33.758Z,3.93
2023-04-26T03:51:00.414Z,4.67
2023-04-26T03:53:27.072Z,4.20
2023-04-26T03:55:53.785Z,4.40
2023-04-26T03:58:20.494Z,3.87
2023-04-26T04:00:47.178Z,4.30
2023-04-26T04:03:13.998Z,4.13
2023-04-26T04:05:40.861Z,4.40
2023-04-26T04:08:07.593Z,4.10
2023-04-26T04:10:34.300Z,4.40
2023-04-26T04:13:00.972Z,4.20
2023-04-26T04:15:27.649Z,4.00
2023-04-26T04:17:54.481Z,3.90
2023-04-26T04:20:21.481Z,4.07
2023-04-26T04:22:48.166Z,4.00
2023-04-26T04:25:15.074Z,4.33
2023-04-26T04:27:43.320Z,4.77
2023-04-26T04:30:10.561Z,4.20
2023-04-26T04:32:39.228Z,3.53
2023-04-26T04:35:07.357Z,4.60
2023-04-26T04:37:34.760Z,4.20
2023-04-26T04:40:01.637Z,4.13
2023-04-26T04:42:28.310Z,4.20
2023-04-26T04:44:56.037Z,5.03
2023-04-26T04:47:22.837Z,4.77
2023-04-26T04:49:49.528Z,4.73
2023-04-26T04:52:18.635Z,4.10
2023-04-26T04:54:45.641Z,3.83
2023-04-26T04:57:13.803Z,3.80
2023-04-26T04:59:40.853Z,4.33
2023-04-26T05:02:07.597Z,4.50
2023-04-26T05:04:34.719Z,4.30
2023-04-26T05:07:02.108Z,4.23
2023-04-26T05:09:28.788Z,4.33
2023-04-26T05:11:55.477Z,4.27
2023-04-26T05:14:22.206Z,4.00
2023-04-26T05:16:49.002Z,4.20
2023-04-26T05:19:15.872Z,4.07
2023-04-26T05:21:42.546Z,4.03
2023-04-26T05:24:09.208Z,3.80
2023-04-26T05:26:36.534Z,4.00
2023-04-26T05:29:03.293Z,3.90
2023-04-26T05:31:29.978Z,4.60
2023-04-26T05:33:56.704Z,4.30
2023-04-26T05:36:23.635Z,4.53
2023-04-26T05:38:50.266Z,4.40
2023-04-26T05:41:17.017Z,4.40
2023-04-26T05:43:43.669Z,4.53
2023-04-26T05:46:10.403Z,4.20
2023-04-26T05:48:37.241Z,4.40
2023-04-26T05:51:04.144Z,4.83
2023-04-26T05:53:30.979Z,4.60
2023-04-26T05:55:57.895Z,4.80
2023-04-26T05:58:24.548Z,4.77
2023-04-26T06:00:51.232Z,5.47
2023-04-26T06:03:18.735Z,4.93
2023-04-26T06:05:45.613Z,5.07
2023-04-26T06:08:12.331Z,4.77
2023-04-26T06:10:39.065Z,5.87
2023-04-26T06:13:05.749Z,5.20
2023-04-26T06:15:32.525Z,4.93
2023-04-26T06:17:59.267Z,5.20
2023-04-26T06:20:26.182Z,5.10
2023-04-26T06:22:52.943Z,4.53
2023-04-26T06:25:19.724Z,4.90
2023-04-26T06:27:46.573Z,5.30
2023-04-26T06:30:13.637Z,5.43
2023-04-26T06:32:43.246Z,4.87
2023-04-26T06:35:10.055Z,6.03
2023-04-26T06:37:37.868Z,5.90
2023-04-26T06:40:05.361Z,6.43
2023-04-26T06:42:32.015Z,6.13
2023-04-26T06:44:58.882Z,7.17
2023-04-26T06:47:25.625Z,5.97
2023-04-26T06:49:52.277Z,6.60
2023-04-26T06:52:20.591Z,6.07
2023-04-26T06:54:56.489Z,6.63
2023-04-26T06:57:24.472Z,6.30
2023-04-26T06:59:51.465Z,6.43
2023-04-26T07:02:18.428Z,6.60
2023-04-26T07:04:45.739Z,7.13
2023-04-26T07:07:13.801Z,7.47
2023-04-26T07:09:40.999Z,7.10
2023-04-26T07:12:07.881Z,6.70
2023-04-26T07:14:37.172Z,6.70
2023-04-26T07:17:05.363Z,6.93
2023-04-26T07:19:32.073Z,7.13
2023-04-26T07:21:58.746Z,6.40
2023-04-26T07:24:25.752Z,6.70
2023-04-26T07:26:52.396Z,7.63
2023-04-26T07:29:19.449Z,6.77
2023-04-26T07:31:46.206Z,7.63
2023-04-26T07:34:13.084Z,7.20
2023-04-26T07:36:39.857Z,7.47
2023-04-26T07:39:06.795Z,6.50
2023-04-26T07:41:33.488Z,7.37
2023-04-26T07:44:00.584Z,7.17
2023-04-26T07:46:27.454Z,6.10
2023-04-26T07:48:54.202Z,6.90
2023-04-26T07:51:21.020Z,8.17
2023-04-26T07:53:47.712Z,6.00
2023-04-26T07:56:15.317Z,6.57
2023-04-26T07:58:42.098Z,6.37
2023-04-26T08:01:09.729Z,6.77
2023-04-26T08:03:37.009Z,6.70
2023-04-26T08:06:04.275Z,6.03
2023-04-26T08:08:33.344Z,6.00
2023-04-26T08:10:59.986Z,6.10
2023-04-26T08:13:29.128Z,6.83
2023-04-26T08:15:56.275Z,7.90
2023-04-26T08:18:22.978Z,7.50
2023-04-26T08:20:49.641Z,6.43
2023-04-26T08:23:16.382Z,5.70
2023-04-26T08:25:45.476Z,6.17
2023-04-26T08:28:14.545Z,5.83
2023-04-26T08:30:41.471Z,5.80
2023-04-26T08:33:09.515Z,4.67
2023-04-26T08:35:36.219Z,4.83
2023-04-26T08:38:03.334Z,5.30
2023-04-26T08:40:30.688Z,4.93
2023-04-26T08:42:57.329Z,4.20
2023-04-26T08:45:25.063Z,4.27
2023-04-26T08:47:56.627Z,4.73
2023-04-26T08:50:23.912Z,4.40
2023-04-26T08:52:52.224Z,4.47
2023-04-26T08:55:21.592Z,4.20
2023-04-26T08:57:49.620Z,4.03
2023-04-26T09:00:18.658Z,4.30
2023-04-26T09:02:53.204Z,3.73
2023-04-26T09:05:24.537Z,4.30
2023-04-26T09:07:56.510Z,4.23
2023-04-26T09:10:23.940Z,4.57
2023-04-26T09:12:56.594Z,4.47
2023-04-26T09:15:25.230Z,4.23
2023-04-26T09:17:52.483Z,4.10
2023-04-26T09:20:27.568Z,3.70
2023-04-26T09:23:03.917Z,3.57
2023-04-26T09:25:31.823Z,3.13
2023-04-26T09:28:00.357Z,2.80
2023-04-26T09:30:28.567Z,3.30
2023-04-26T09:32:55.821Z,2.87
2023-04-26T09:35:29.819Z,3.03
2023-04-26T09:38:05.601Z,3.53
2023-04-26T09:40:38.977Z,3.43
2023-04-26T09:43:27.349Z,2.73
2023-04-26T09:45:56.812Z,3.80
2023-04-26T09:48:30.560Z,2.87
2023-04-26T09:50:59.613Z,2.63
2023-04-26T09:53:39.248Z,2.80
2023-04-26T09:56:11.382Z,2.53
2023-04-26T09:58:58.220Z,2.70
2023-04-26T10:01:26.808Z,2.90
2023-04-26T10:03:55.179Z,2.50
2023-04-26T10:06:22.172Z,2.87
2023-04-26T10:08:48.897Z,3.50
2023-04-26T10:11:15.709Z,3.50
2023-04-26T10:13:44.685Z,2.90
2023-04-26T10:16:11.718Z,2.77
2023-04-26T10:18:38.437Z,2.50
2023-04-26T10:21:17.088Z,2.57
2023-04-26T10:23:44.156Z,2.40
2023-04-26T10:26:54.897Z,2.80
2023-04-26T10:29:22.157Z,2.53
2023-04-26T10:32:01.757Z,3.00
2023-04-26T10:34:31.226Z,2.77
2023-04-26T10:37:15.988Z,2.70
2023-04-26T10:39:46.865Z,3.00
2023-04-26T10:42:30.902Z,2.50
2023-04-26T10:45:24.535Z,2.73
2023-04-26T10:48:11.150Z,2.57
2023-04-26T10:51:12.525Z,2.70
2023-04-26T10:53:45.426Z,2.97
2023-04-26T10:56:24.416Z,3.30
2023-04-26T11:01:41.981Z,2.80
2023-04-26T11:04:10.414Z,3.23
2023-04-26T11:06:54.121Z,3.53
2023-04-26T11:09:37.370Z,3.10
2023-04-26T11:12:05.536Z,3.00
2023-04-26T11:14:34.265Z,2.80
2023-04-26T11:17:04.957Z,3.00
2023-04-26T11:19:32.432Z,3.10
2023-04-26T11:22:00.866Z,3.07
2023-04-26T11:24:29.975Z,3.50
2023-04-26T11:26:58.104Z,3.40
2023-04-26T11:29:26.323Z,3.10
2023-04-26T11:31:54.358Z,3.57
2023-04-26T11:34:31.886Z,3.40
2023-04-26T11:36:58.617Z,3.50
2023-04-26T11:39:25.352Z,3.27
2023-04-26T11:41:56.407Z,3.40
2023-04-26T11:44:23.035Z,3.33
2023-04-26T11:46:50.590Z,3.20
2023-04-26T11:49:17.672Z,3.97
2023-04-26T11:51:48.178Z,4.20
2023-04-26T11:54:30.831Z,3.80
2023-04-26T11:56:58.445Z,3.33
2023-04-26T11:59:29.570Z,3.40
2023-04-26T12:01:57.228Z,4.17
2023-04-26T12:04:30.862Z,3.13
2023-04-26T12:06:58.343Z,3.50
2023-04-26T12:09:28.151Z,3.20
2023-04-26T12:12:07.689Z,2.93
2023-04-26T12:14:38.861Z,4.07
2023-04-26T12:17:07.519Z,3.40
2023-04-26T12:19:36.648Z,3.47
2023-04-26T12:22:04.440Z,4.20
2023-04-26T12:24:36.958Z,3.97
2023-04-26T12:27:06.729Z,4.13
2023-04-26T12:29:34.334Z,3.00
2023-04-26T12:32:02.344Z,3.10
2023-04-26T12:34:29.795Z,3.47
2023-04-26T12:36:56.621Z,3.73
2023-04-26T12:39:23.389Z,3.67
2023-04-26T12:41:50.088Z,3.70
2023-04-26T12:44:17.577Z,3.40
2023-04-26T12:46:45.944Z,3.33
2023-04-26T12:49:12.766Z,3.47
2023-04-26T12:51:39.427Z,3.60
2023-04-26T12:54:06.127Z,3.80
2023-04-26T12:56:35.057Z,4.03
2023-04-26T12:59:02.212Z,3.90
2023-04-26T13:01:28.977Z,3.87
2023-04-26T13:03:57.201Z,4.47
2023-04-26T13:06:24.557Z,3.73
2023-04-26T13:08:51.272Z,3.83
2023-04-26T13:11:18.127Z,4.63
2023-04-26T13:13:45.249Z,3.97
2023-04-26T13:16:13.354Z,3.90
2023-04-26T13:18:41.414Z,4.73
2023-04-26T13:21:08.618Z,4.37
2023-04-26T13:23:35.788Z,4.27
2023-04-26T13:26:02.700Z,5.43
2023-04-26T13:28:29.820Z,4.20
2023-04-26T13:30:56.559Z,3.77
2023-04-26T13:33:26.351Z,3.97
2023-04-26T13:35:53.488Z,4.63
2023-04-26T13:38:20.556Z,4.50
2023-04-26T13:40:47.704Z,4.90
2023-04-26T13:43:14.424Z,4.10
2023-04-26T13:45:41.406Z,4.20
2023-04-26T13:48:08.529Z,4.73
2023-04-26T13:50:38.245Z,4.53
2023-04-26T13:53:05.370Z,4.57
2023-04-26T13:55:32.498Z,4.80
2023-04-26T13:57:59.313Z,4.00
2023-04-26T14:00:27.166Z,4.43
2023-04-26T14:02:54.533Z,4.80
2023-04-26T14:05:21.711Z,4.33
2023-04-26T14:07:48.889Z,3.97
2023-04-26T14:10:16.024Z,4.40
2023-04-26T14:12:43.226Z,3.83
2023-04-26T14:15:10.792Z,3.70
2023-04-26T14:17:37.517Z,4.00
2023-04-26T14:20:05.448Z,3.67
2023-04-26T14:22:32.538Z,4.17
2023-04-26T14:24:59.700Z,3.97
2023-04-26T14:27:26.931Z,3.93
2023-04-26T14:29:54.076Z,4.07
2023-04-26T14:32:21.255Z,4.47
2023-04-26T14:34:47.981Z,3.63
2023-04-26T14:37:15.270Z,3.80
2023-04-26T14:39:42.332Z,3.53
2023-04-26T14:42:09.455Z,3.73
2023-04-26T14:44:36.626Z,3.57
2023-04-26T14:47:03.331Z,3.73
2023-04-26T14:49:31.427Z,3.60
2023-04-26T14:51:58.515Z,3.37
2023-04-26T14:54:25.284Z,3.40
2023-04-26T14:56:52.703Z,3.67
2023-04-26T14:59:19.870Z,3.87
2023-04-26T15:01:47.170Z,4.00
2023-04-26T15:04:14.099Z,4.17
2023-04-26T15:06:41.294Z,4.13
2023-04-26T15:09:08.787Z,3.50
2023-04-26T15:11:35.798Z,3.10
2023-04-26T15:14:02.506Z,3.50
2023-04-26T15:16:29.686Z,3.50
2023-04-26T15:18:56.549Z,4.00
2023-04-26T15:21:23.710Z,3.70
2023-04-26T15:23:50.504Z,3.50
2023-04-26T15:26:17.206Z,3.20
2023-04-26T15:28:44.400Z,2.80
2023-04-26T15:31:11.403Z,3.07
2023-04-26T15:33:38.685Z,3.20
2023-04-26T15:36:06.086Z,3.10
2023-04-26T15:38:36.076Z,3.30
2023-04-26T15:41:02.941Z,3.93
2023-04-26T15:43:29.620Z,3.47
2023-04-26T15:45:56.316Z,3.67
2023-04-26T15:48:23.393Z,4.30
2023-04-26T15:50:53.669Z,4.37
2023-04-26T15:53:21.764Z,3.63
2023-04-26T15:55:48.873Z,3.37
2023-04-26T15:58:15.640Z,3.77
2023-04-26T16:00:42.474Z,3.10
2023-04-26T16:03:09.863Z,3.53
2023-04-26T16:05:36.782Z,3.13
2023-04-26T16:08:05.632Z,3.80
2023-04-26T16:10:32.721Z,3.43
2023-04-26T16:12:59.392Z,3.53
2023-04-26T16:15:26.831Z,3.40
2023-04-26T16:17:53.934Z,3.07
2023-04-26T16:20:21.349Z,3.00
2023-04-26T16:22:49.791Z,3.50
2023-04-26T16:25:17.224Z,3.03
2023-04-26T16:27:44.628Z,3.00
2023-04-26T16:30:12.158Z,2.90
2023-04-26T16:32:38.933Z,3.70
2023-04-26T16:35:06.469Z,3.63
2023-04-26T16:37:33.196Z,3.37
2023-04-26T16:40:00.262Z,3.33
2023-04-26T16:42:27.423Z,3.13
2023-04-26T16:44:55.785Z,3.47
2023-04-26T16:47:22.509Z,3.30
2023-04-26T16:49:49.584Z,3.97
2023-04-26T16:52:16.735Z,3.70
2023-04-26T16:54:43.849Z,2.73
2023-04-26T16:57:11.042Z,3.40
2023-04-26T16:59:38.088Z,3.67
2023-04-26T17:02:04.938Z,3.30
2023-04-26T17:04:32.378Z,3.93
2023-04-26T17:06:59.194Z,3.37
2023-04-26T17:09:26.698Z,3.30
2023-04-26T17:11:54.325Z,2.90
2023-04-26T17:14:21.045Z,3.17
2023-04-26T17:16:47.699Z,3.20
2023-04-26T17:19:14.813Z,3.10
2023-04-26T17:21:41.505Z,4.20
2023-04-26T17:24:08.354Z,4.57
2023-04-26T17:26:35.504Z,5.17
2023-04-26T17:29:02.472Z,4.10
2023-04-26T17:31:29.304Z,3.80
2023-04-26T17:33:56.483Z,2.97
2023-04-26T17:36:23.626Z,3.03
2023-04-26T17:38:50.767Z,2.90
2023-04-26T17:41:17.909Z,3.00
2023-04-26T17:43:45.299Z,3.10
2023-04-26T17:46:12.203Z,3.20
2023-04-26T17:48:39.425Z,3.60
2023-04-26T17:51:06.863Z,2.87
2023-04-26T17:53:34.097Z,2.60
2023-04-26T17:56:01.711Z,3.60
2023-04-26T17:58:28.473Z,4.27
2023-04-26T18:00:55.555Z,5.53
2023-04-26T18:03:22.959Z,4.70
2023-04-26T18:05:50.080Z,4.23
2023-04-26T18:08:17.314Z,3.80
2023-04-26T18:10:45.121Z,4.03
2023-04-26T18:13:13.346Z,5.00
2023-04-26T18:15:40.159Z,3.80
2023-04-26T18:18:08.116Z,4.30
2023-04-26T18:20:37.653Z,5.40
2023-04-26T18:23:04.313Z,4.57
2023-04-26T18:25:31.417Z,4.80
2023-04-26T18:27:58.510Z,4.63
2023-04-26T18:30:25.628Z,5.13
2023-04-26T18:32:53.229Z,4.10
2023-04-26T18:35:20.105Z,4.53
2023-04-26T18:37:46.807Z,5.10
2023-04-26T18:40:13.538Z,4.97
2023-04-26T18:42:40.418Z,4.47
2023-04-26T18:45:07.842Z,4.90
2023-04-26T18:47:35.031Z,4.80
2023-04-26T18:50:02.891Z,4.03
2023-04-26T18:52:29.685Z,4.17
2023-04-26T18:54:56.864Z,4.27
2023-04-26T18:57:26.649Z,3.90
2023-04-26T18:59:56.552Z,4.03
2023-04-26T19:02:23.750Z,4.30
2023-04-26T19:04:51.035Z,4.20
2023-04-26T19:07:18.229Z,5.13
2023-04-26T19:09:54.287Z,5.80
2023-04-26T19:12:22.266Z,5.70
2023-04-26T19:14:49.128Z,4.80
2023-04-26T19:17:16.274Z,5.10
2023-04-26T19:19:42.935Z,6.37
2023-04-26T19:22:10.295Z,6.50
2023-04-26T19:24:37.032Z,6.07
2023-04-26T19:27:04.574Z,5.87
2023-04-26T19:29:31.304Z,4.60
2023-04-26T19:31:59.924Z,4.23
2023-04-26T19:34:27.749Z,3.90
2023-04-26T19:36:54.931Z,3.90
2023-04-26T19:39:23.782Z,4.20
2023-04-26T19:41:51.205Z,4.33
2023-04-26T19:44:18.453Z,4.13
2023-04-26T19:46:45.287Z,3.63
2023-04-26T19:49:12.237Z,3.70
2023-04-26T19:51:39.402Z,4.10
2023-04-26T19:54:06.535Z,3.83
2023-04-26T19:56:33.616Z,3.40
2023-04-26T19:59:00.351Z,3.97
2023-04-26T20:01:27.986Z,3.83
2023-04-26T20:03:55.347Z,3.83
2023-04-26T20:06:22.365Z,3.90
2023-04-26T20:08:49.482Z,3.90
2023-04-26T20:11:17.423Z,3.10
2023-04-26T20:13:44.761Z,3.97
2023-04-26T20:16:12.452Z,3.60
2023-04-26T20:18:39.674Z,4.00
2023-04-26T20:21:06.755Z,3.63
2023-04-26T20:23:33.859Z,3.70
2023-04-26T20:26:00.993Z,3.90
2023-04-26T20:28:28.133Z,3.40
2023-04-26T20:30:55.267Z,3.87
2023-04-26T20:33:22.341Z,3.77
2023-04-26T20:35:49.413Z,3.50
2023-04-26T20:38:16.547Z,5.00
2023-04-26T20:40:43.495Z,5.07
2023-04-26T20:43:11.992Z,4.37
2023-04-26T20:45:40.678Z,4.23
2023-04-26T20:48:07.937Z,4.10
2023-04-26T20:50:36.565Z,3.90
2023-04-26T20:53:07.092Z,3.63
2023-04-26T20:55:33.835Z,3.60
2023-04-26T20:58:01.051Z,4.10
2023-04-26T21:00:28.192Z,3.90
2023-04-26T21:02:54.970Z,4.00
2023-04-26T21:05:24.015Z,3.73
2023-04-26T21:07:50.924Z,3.50
2023-04-26T21:10:17.837Z,3.90
2023-04-26T21:12:44.509Z,3.87
2023-04-26T21:15:11.735Z,3.50
2023-04-26T21:17:40.671Z,3.83
2023-04-26T21:20:07.814Z,3.70
2023-04-26T21:22:34.874Z,4.80
2023-04-26T21:25:01.623Z,4.00
2023-04-26T21:27:28.343Z,3.93
2023-04-26T21:29:55.416Z,3.60
2023-04-26T21:32:22.518Z,3.90
2023-04-26T21:34:49.593Z,4.07
2023-04-26T21:37:16.772Z,4.10
2023-04-26T21:39:43.905Z,3.77
2023-04-26T21:42:10.812Z,3.33
2023-04-26T21:44:37.873Z,3.50
2023-04-26T21:47:05.557Z,4.00
2023-04-26T21:49:32.756Z,4.00
2023-04-26T21:51:59.460Z,3.50
2023-04-26T21:54:26.525Z,3.57
2023-04-26T21:56:53.643Z,3.90
2023-04-26T21:59:20.780Z,3.40
2023-04-26T22:01:47.464Z,3.60
2023-04-26T22:04:14.621Z,3.50
2023-04-26T22:06:41.796Z,3.80
2023-04-26T22:09:12.594Z,3.87
2023-04-26T22:11:39.880Z,3.37
2023-04-26T22:14:06.983Z,3.60
2023-04-26T22:16:33.743Z,3.43
2023-04-26T22:19:00.482Z,3.33
2023-04-26T22:21:28.354Z,3.20
2023-04-26T22:23:55.606Z,3.00
2023-04-26T22:26:22.336Z,3.50
2023-04-26T22:28:49.024Z,3.43
2023-04-26T22:31:16.109Z,3.77
2023-04-26T22:33:43.478Z,3.90
2023-04-26T22:36:10.188Z,3.80
2023-04-26T22:38:36.847Z,3.70
2023-04-26T22:41:07.027Z,3.40
2023-04-26T22:43:34.557Z,3.20
2023-04-26T22:46:01.780Z,3.60
2023-04-26T22:48:28.491Z,3.70
2023-04-26T22:50:55.240Z,3.70
2023-04-26T22:53:22.724Z,3.67
2023-04-26T22:55:50.812Z,3.97
2023-04-26T22:58:17.976Z,4.83
2023-04-26T23:00:45.042Z,3.33
2023-04-26T23:03:11.882Z,3.80
2023-04-26T23:05:39.117Z,4.20
2023-04-26T23:08:06.187Z,3.80
2023-04-26T23:10:33.273Z,3.87
2023-04-26T23:13:00.398Z,3.80
2023-04-26T23:15:27.534Z,4.50
2023-04-26T23:17:54.917Z,5.87
2023-04-26T23:20:22.645Z,3.90
2023-04-26T23:22:49.742Z,3.57
2023-04-26T23:25:16.467Z,4.07
2023-04-26T23:27:43.145Z,3.57
2023-04-26T23:30:10.797Z,3.50
2023-04-26T23:32:38.065Z,4.30
2023-04-26T23:35:05.533Z,3.50
2023-04-26T23:37:32.710Z,3.90
2023-04-26T23:39:59.807Z,3.63
2023-04-26T23:42:26.912Z,3.77
2023-04-26T23:44:53.601Z,3.67
2023-04-26T23:47:20.311Z,3.73
2023-04-26T23:49:47.390Z,3.43
2023-04-26T23:52:14.107Z,3.60
2023-04-26T23:54:41.158Z,3.90
2023-04-26T23:57:09.125Z,3.50
2023-04-26T23:59:35.903Z,3.97
